Time;durP1;ratioP1;P1;durP2;ratioP2;P2;SDS_P1;SDS_P2;PMS_P1;PMS_P2;Temp;Humidity;BMP_temperature;BMP_pressure;BME280_temperature;BME280_humidity;BME280_pressure;Samples;Min_cycle;Max_cycle;Signal;HPM_P1;HPM_P2
2023/03/26 00:00:47;;;;;;;1.70;1.00;;;14.50;56.60;;;;;;5021127;28;20444;-49
2023/03/26 00:03:15;;;;;;;2.43;1.40;;;14.60;56.40;;;;;;5029877;28;20455;-48
2023/03/26 00:05:41;;;;;;;4.43;1.47;;;14.60;56.30;;;;;;5029014;28;20822;-49
2023/03/26 00:08:07;;;;;;;2.63;1.33;;;14.60;56.10;;;;;;5030353;28;20476;-45
2023/03/26 00:10:35;;;;;;;3.80;1.43;;;14.60;56.20;;;;;;5028190;28;20197;-49
2023/03/26 00:13:02;;;;;;;1.70;1.40;;;14.50;55.90;;;;;;5031925;28;20431;-49
2023/03/26 00:15:27;;;;;;;2.03;1.23;;;14.30;56.20;;;;;;5030651;28;20420;-49
2023/03/26 00:17:53;;;;;;;2.40;1.30;;;14.20;56.40;;;;;;5045050;28;20930;-49
2023/03/26 00:20:19;;;;;;;3.70;1.30;;;14.20;56.40;;;;;;5040525;28;20203;-48
2023/03/26 00:22:45;;;;;;;2.50;1.40;;;14.20;56.40;;;;;;5050535;28;20199;-47
2023/03/26 00:25:11;;;;;;;2.73;1.30;;;14.00;56.90;;;;;;5050454;28;20423;-46
2023/03/26 00:27:37;;;;;;;3.97;1.70;;;13.90;57.30;;;;;;5033411;28;20228;-48
2023/03/26 00:30:03;;;;;;;1.87;1.60;;;13.70;57.40;;;;;;5028923;28;20197;-45
2023/03/26 00:32:29;;;;;;;4.03;1.40;;;13.70;57.80;;;;;;5029386;28;20962;-49
2023/03/26 00:34:56;;;;;;;2.23;1.33;;;13.70;57.70;;;;;;5038758;28;20420;-46
2023/03/26 00:37:25;;;;;;;3.47;1.50;;;13.60;57.80;;;;;;5028510;28;20197;-48
2023/03/26 00:39:58;;;;;;;1.47;1.30;;;13.80;57.80;;;;;;5029071;28;20448;-47
2023/03/26 00:42:25;;;;;;;1.30;1.20;;;13.90;57.40;;;;;;5028743;28;20447;-46
2023/03/26 00:44:54;;;;;;;3.37;1.87;;;13.90;57.10;;;;;;5026805;28;20462;-49
2023/03/26 00:47:20;;;;;;;4.00;1.40;;;14.00;57.00;;;;;;5025279;28;20478;-50
2023/03/26 00:49:47;;;;;;;1.60;1.50;;;14.00;56.90;;;;;;5028114;28;20452;-51
2023/03/26 00:52:13;;;;;;;4.83;1.80;;;13.90;56.80;;;;;;5031233;28;20439;-50
2023/03/26 00:54:39;;;;;;;2.87;1.43;;;14.00;56.80;;;;;;5031409;28;20443;-45
2023/03/26 00:57:05;;;;;;;1.93;1.47;;;13.90;56.70;;;;;;5031808;28;20475;-48
2023/03/26 00:59:34;;;;;;;1.63;1.37;;;13.80;56.80;;;;;;5025848;28;20436;-50
2023/03/26 01:02:00;;;;;;;4.20;1.33;;;13.90;56.70;;;;;;5032529;28;20456;-49
2023/03/26 01:04:29;;;;;;;1.57;1.00;;;14.00;56.70;;;;;;5028824;28;20436;-45
2023/03/26 01:06:57;;;;;;;2.10;1.47;;;14.00;56.50;;;;;;5039650;28;20452;-46
2023/03/26 01:09:49;;;;;;;3.10;1.43;;;14.00;56.50;;;;;;5033238;28;21024;-49
2023/03/26 01:12:17;;;;;;;1.60;1.23;;;14.00;56.50;;;;;;5031637;28;20531;-45
2023/03/26 01:14:45;;;;;;;1.70;1.37;;;14.00;56.50;;;;;;5031902;28;20443;-49
2023/03/26 01:17:11;;;;;;;2.50;1.10;;;14.00;56.50;;;;;;5031098;28;20444;-49
2023/03/26 01:19:56;;;;;;;5.57;1.77;;;14.00;56.50;;;;;;5031915;28;20454;-48
2023/03/26 01:22:24;;;;;;;3.67;1.53;;;14.00;56.50;;;;;;5030378;28;20921;-50
2023/03/26 01:24:55;;;;;;;2.40;1.80;;;14.00;56.30;;;;;;5031661;28;20455;-51
2023/03/26 01:27:43;;;;;;;1.77;1.20;;;14.00;56.30;;;;;;5032352;28;20436;-50
2023/03/26 01:30:28;;;;;;;7.03;1.73;;;14.00;56.40;;;;;;5024601;28;20454;-49
2023/03/26 01:33:12;;;;;;;4.40;1.60;;;13.80;56.50;;;;;;5031405;28;20598;-50
2023/03/26 01:35:56;;;;;;;3.70;1.00;;;13.40;57.50;;;;;;5025602;28;21681;-47
2023/03/26 01:38:30;;;;;;;3.07;1.40;;;13.40;57.30;;;;;;5028337;28;20455;-45
2023/03/26 01:41:19;;;;;;;1.80;1.30;;;13.60;57.10;;;;;;5031721;28;20455;-46
2023/03/26 01:44:07;;;;;;;2.83;1.30;;;13.60;57.00;;;;;;5029955;28;20947;-48
2023/03/26 01:46:36;;;;;;;5.37;1.50;;;13.70;57.00;;;;;;5034145;28;21021;-48
2023/03/26 01:49:04;;;;;;;4.30;1.37;;;13.70;56.80;;;;;;5032027;28;20496;-47
2023/03/26 01:51:33;;;;;;;3.30;1.10;;;13.80;56.70;;;;;;5027129;28;20439;-48
2023/03/26 01:54:02;;;;;;;2.33;1.50;;;13.90;56.40;;;;;;5032062;28;20490;-45
2023/03/26 01:57:05;;;;;;;3.83;1.43;;;13.70;56.80;;;;;;5030382;28;20479;-48
2023/03/26 02:00:05;;;;;;;3.67;1.20;;;13.70;56.80;;;;;;5029828;28;20446;-49
2023/03/26 02:02:53;;;;;;;4.10;1.53;;;13.80;56.60;;;;;;5029032;28;20452;-50
2023/03/26 02:05:31;;;;;;;2.30;1.63;;;13.90;56.50;;;;;;5029608;28;20447;-45
2023/03/26 02:08:15;;;;;;;1.60;1.20;;;14.00;56.50;;;;;;5023920;28;20569;-46
2023/03/26 02:10:45;;;;;;;3.70;2.00;;;14.00;56.20;;;;;;5030022;28;20517;-50
2023/03/26 02:13:12;;;;;;;2.80;1.17;;;13.90;55.80;;;;;;5027992;28;20963;-48
2023/03/26 02:15:39;;;;;;;2.33;1.30;;;14.00;55.90;;;;;;5029401;28;20534;-47
2023/03/26 02:18:09;;;;;;;5.33;1.50;;;14.00;55.80;;;;;;5026899;28;20444;-50
2023/03/26 02:20:35;;;;;;;5.60;1.57;;;14.00;55.90;;;;;;5029118;28;20443;-45
2023/03/26 02:23:01;;;;;;;3.60;1.40;;;13.80;56.10;;;;;;5027926;28;20444;-48
2023/03/26 02:25:26;;;;;;;2.63;1.10;;;13.80;56.20;;;;;;5030139;28;20444;-47
2023/03/26 02:27:52;;;;;;;3.53;1.40;;;13.90;56.10;;;;;;5029564;28;20311;-49
2023/03/26 02:30:25;;;;;;;2.03;1.37;;;13.90;56.10;;;;;;5030153;28;20197;-45
2023/03/26 02:32:52;;;;;;;4.63;1.40;;;14.00;56.20;;;;;;5021706;28;20478;-48
2023/03/26 02:35:20;;;;;;;4.93;1.67;;;14.00;56.20;;;;;;5031872;28;21029;-50
2023/03/26 02:37:45;;;;;;;2.13;1.53;;;14.00;56.00;;;;;;5029137;28;20518;-49
2023/03/26 02:40:12;;;;;;;2.53;1.30;;;14.00;55.90;;;;;;5028509;28;20460;-45
2023/03/26 02:42:39;;;;;;;3.50;1.33;;;14.10;55.90;;;;;;5027993;28;20189;-50
2023/03/26 02:45:05;;;;;;;4.63;1.63;;;13.90;55.80;;;;;;5036870;28;20794;-45
2023/03/26 02:47:32;;;;;;;5.47;1.30;;;13.80;56.30;;;;;;5030950;28;20447;-49
2023/03/26 02:49:58;;;;;;;3.77;1.57;;;13.90;56.40;;;;;;5033124;28;20962;-47
2023/03/26 02:52:23;;;;;;;1.10;1.00;;;14.00;56.20;;;;;;5041008;28;20443;-45
2023/03/26 02:54:49;;;;;;;4.50;1.60;;;13.90;56.00;;;;;;5036296;28;20198;-47
2023/03/26 02:57:15;;;;;;;3.43;1.27;;;13.90;56.00;;;;;;5019663;28;20203;-50
2023/03/26 02:59:40;;;;;;;3.43;1.20;;;14.00;55.90;;;;;;5024533;28;20573;-49
2023/03/26 03:02:06;;;;;;;3.10;1.40;;;14.00;55.60;;;;;;5028595;28;20200;-46
2023/03/26 03:04:31;;;;;;;3.40;1.73;;;14.00;55.60;;;;;;5031008;28;20221;-45
2023/03/26 03:06:58;;;;;;;8.53;1.70;;;14.00;55.50;;;;;;5028112;28;20616;-49
2023/03/26 03:09:24;;;;;;;4.07;1.60;;;13.90;55.70;;;;;;5031713;28;20264;-47
2023/03/26 03:11:51;;;;;;;4.27;1.30;;;13.90;55.70;;;;;;5032036;28;20443;-45
2023/03/26 03:14:17;;;;;;;3.37;1.37;;;13.90;55.70;;;;;;5031475;28;20206;-50
2023/03/26 03:16:43;;;;;;;2.90;1.77;;;13.80;55.70;;;;;;5028553;28;20452;-49
2023/03/26 03:19:08;;;;;;;3.73;1.30;;;13.90;55.90;;;;;;5035501;28;20447;-47
2023/03/26 03:21:34;;;;;;;1.90;1.30;;;13.90;55.70;;;;;;5031449;28;20193;-50
2023/03/26 03:24:00;;;;;;;3.40;1.33;;;14.00;55.80;;;;;;5030956;28;20255;-46
2023/03/26 03:26:26;;;;;;;3.97;1.27;;;14.00;55.70;;;;;;5029119;28;20808;-48
2023/03/26 03:28:55;;;;;;;3.10;1.17;;;14.10;55.70;;;;;;5028594;28;20232;-50
2023/03/26 03:31:21;;;;;;;4.17;1.67;;;14.10;55.60;;;;;;5030242;28;20446;-47
2023/03/26 03:33:47;;;;;;;4.63;1.40;;;14.10;55.70;;;;;;5029068;28;20451;-49
2023/03/26 03:36:16;;;;;;;6.40;1.73;;;14.20;56.00;;;;;;5028294;28;20462;-51
2023/03/26 03:38:42;;;;;;;3.70;1.33;;;14.20;56.00;;;;;;5030836;28;20239;-50
2023/03/26 03:41:08;;;;;;;4.47;1.60;;;14.10;55.80;;;;;;5030229;28;20483;-46
2023/03/26 03:43:33;;;;;;;2.50;1.20;;;14.10;55.70;;;;;;5028590;28;20190;-46
2023/03/26 03:45:59;;;;;;;3.33;1.40;;;14.10;55.60;;;;;;5026708;28;20280;-50
2023/03/26 03:48:26;;;;;;;10.90;1.70;;;14.10;55.60;;;;;;5026682;28;20599;-50
2023/03/26 03:50:53;;;;;;;4.80;1.50;;;14.00;55.50;;;;;;5029906;28;20452;-49
2023/03/26 03:53:20;;;;;;;5.57;1.70;;;14.00;55.60;;;;;;5026704;28;20436;-48
2023/03/26 03:55:51;;;;;;;2.40;1.27;;;14.00;55.60;;;;;;5026889;28;20472;-48
2023/03/26 03:58:22;;;;;;;3.47;1.20;;;14.00;55.60;;;;;;5027176;28;20518;-50
2023/03/26 04:00:49;;;;;;;3.27;2.07;;;14.10;55.70;;;;;;5028643;28;20936;-46
2023/03/26 04:03:15;;;;;;;2.97;1.80;;;14.10;55.70;;;;;;5028255;28;20444;-49
2023/03/26 04:05:42;;;;;;;2.23;1.30;;;14.10;55.80;;;;;;5028844;28;21235;-48
2023/03/26 04:08:08;;;;;;;2.47;1.03;;;14.10;56.00;;;;;;5026185;28;20480;-50
2023/03/26 04:10:33;;;;;;;3.27;1.53;;;14.10;55.90;;;;;;5023401;28;20456;-48
2023/03/26 04:12:59;;;;;;;6.30;1.40;;;14.10;55.70;;;;;;5031538;28;20569;-48
2023/03/26 04:15:25;;;;;;;3.67;1.77;;;14.20;55.70;;;;;;5036081;28;20205;-49
2023/03/26 04:17:50;;;;;;;8.20;1.77;;;14.20;55.80;;;;;;5029486;28;20196;-49
2023/03/26 04:20:18;;;;;;;5.47;1.73;;;14.20;55.70;;;;;;5028837;28;20216;-50
2023/03/26 04:22:44;;;;;;;3.83;1.30;;;14.20;55.60;;;;;;5028614;28;20205;-50
2023/03/26 04:25:11;;;;;;;6.80;2.00;;;14.10;55.60;;;;;;5030532;28;20419;-49
2023/03/26 04:27:37;;;;;;;8.27;2.47;;;14.10;55.80;;;;;;5028828;28;20526;-45
2023/03/26 04:30:05;;;;;;;5.20;1.90;;;14.10;55.70;;;;;;5028737;28;20435;-47
2023/03/26 04:32:34;;;;;;;2.60;1.70;;;14.10;55.70;;;;;;5027259;28;20476;-45
2023/03/26 04:35:02;;;;;;;5.27;2.27;;;14.20;55.60;;;;;;5029394;28;20887;-48
2023/03/26 04:37:39;;;;;;;4.43;1.60;;;14.00;55.60;;;;;;5029213;28;20443;-47
2023/03/26 04:40:10;;;;;;;8.90;1.80;;;13.90;56.00;;;;;;5031178;28;20978;-47
2023/03/26 04:42:40;;;;;;;3.87;1.83;;;13.80;56.10;;;;;;5032684;28;20451;-45
2023/03/26 04:45:07;;;;;;;3.30;1.40;;;13.80;56.10;;;;;;5033065;28;20527;-45
2023/03/26 04:47:35;;;;;;;4.63;1.90;;;13.90;55.90;;;;;;5032163;28;20566;-46
2023/03/26 04:50:03;;;;;;;5.93;1.50;;;13.70;55.90;;;;;;5034112;28;20444;-47
2023/03/26 04:52:28;;;;;;;4.20;1.60;;;13.70;56.10;;;;;;5034090;28;20601;-45
2023/03/26 04:54:54;;;;;;;4.27;2.13;;;13.70;56.10;;;;;;5032525;28;20932;-44
2023/03/26 04:57:29;;;;;;;3.03;1.70;;;13.60;56.40;;;;;;5030949;28;20196;-46
2023/03/26 04:59:55;;;;;;;4.80;1.67;;;13.50;56.80;;;;;;5029385;28;20538;-46
2023/03/26 05:02:20;;;;;;;3.63;1.77;;;13.50;57.10;;;;;;5030939;28;20578;-45
2023/03/26 05:04:47;;;;;;;2.90;1.43;;;13.40;56.90;;;;;;5033227;28;20197;-45
2023/03/26 05:07:22;;;;;;;5.13;1.40;;;13.20;57.50;;;;;;5031705;28;20188;-50
2023/03/26 05:09:48;;;;;;;4.33;2.00;;;13.20;57.30;;;;;;5022815;28;20466;-47
2023/03/26 05:12:15;;;;;;;2.80;1.70;;;13.40;57.10;;;;;;5028817;28;20440;-46
2023/03/26 05:14:40;;;;;;;5.80;1.83;;;13.50;56.80;;;;;;5032607;28;20204;-48
2023/03/26 05:17:09;;;;;;;5.03;2.10;;;13.50;56.80;;;;;;5031648;28;20444;-45
2023/03/26 05:19:35;;;;;;;5.60;1.97;;;13.70;56.90;;;;;;5028996;28;20262;-45
2023/03/26 05:22:01;;;;;;;3.00;1.33;;;13.70;56.80;;;;;;5036637;28;20451;-44
2023/03/26 05:24:27;;;;;;;4.40;1.70;;;13.60;57.00;;;;;;5027197;28;20444;-46
2023/03/26 05:26:53;;;;;;;1.60;1.50;;;13.60;56.70;;;;;;5017340;28;20294;-48
2023/03/26 05:29:21;;;;;;;4.00;1.80;;;13.70;56.90;;;;;;5033382;28;20486;-45
2023/03/26 05:31:47;;;;;;;4.10;1.53;;;13.80;56.60;;;;;;5028930;28;20448;-46
2023/03/26 05:34:13;;;;;;;5.40;1.47;;;13.70;56.70;;;;;;5035074;28;20450;-45
2023/03/26 05:36:39;;;;;;;4.67;1.87;;;13.70;56.70;;;;;;5031748;28;20436;-45
2023/03/26 05:39:05;;;;;;;2.00;1.33;;;13.80;56.50;;;;;;5032105;28;20460;-46
2023/03/26 05:41:30;;;;;;;6.63;1.33;;;13.90;56.40;;;;;;5030654;28;20486;-45
2023/03/26 05:43:56;;;;;;;5.57;2.03;;;14.00;56.30;;;;;;5031734;28;20193;-45
2023/03/26 05:46:22;;;;;;;2.33;1.60;;;14.00;56.20;;;;;;5036254;28;20205;-45
2023/03/26 05:48:48;;;;;;;5.60;1.93;;;13.90;56.10;;;;;;5029403;28;20228;-48
2023/03/26 05:51:14;;;;;;;3.60;1.83;;;14.00;56.20;;;;;;5031614;28;20212;-45
2023/03/26 05:53:40;;;;;;;2.80;1.50;;;13.90;56.00;;;;;;5031627;28;20870;-45
2023/03/26 05:56:07;;;;;;;3.27;1.40;;;13.90;56.10;;;;;;5029542;28;20478;-50
2023/03/26 05:58:33;;;;;;;2.83;1.70;;;13.70;55.80;;;;;;5030442;28;20442;-45
2023/03/26 06:01:04;;;;;;;2.97;1.43;;;13.40;55.60;;;;;;5030897;28;20483;-45
2023/03/26 06:03:36;;;;;;;5.07;2.30;;;13.10;56.00;;;;;;5030179;28;21003;-45
2023/03/26 06:06:05;;;;;;;2.10;1.60;;;13.00;56.50;;;;;;5032073;28;20523;-45
2023/03/26 06:08:31;;;;;;;5.37;1.40;;;13.00;57.80;;;;;;5033842;28;20517;-48
2023/03/26 06:11:06;;;;;;;5.23;2.13;;;13.10;57.90;;;;;;5031556;28;20443;-45
2023/03/26 06:13:32;;;;;;;5.13;2.03;;;13.20;57.90;;;;;;5031968;28;20228;-46
2023/03/26 06:15:57;;;;;;;2.20;1.67;;;13.00;58.10;;;;;;5030949;28;20476;-48
2023/03/26 06:18:24;;;;;;;2.63;1.50;;;12.80;58.40;;;;;;5031508;28;20221;-45
2023/03/26 06:20:51;;;;;;;3.00;1.90;;;12.50;59.00;;;;;;5029748;28;20193;-46
2023/03/26 06:23:17;;;;;;;7.83;2.23;;;12.90;59.70;;;;;;5026816;28;20947;-45
2023/03/26 06:25:44;;;;;;;4.67;1.87;;;13.40;59.70;;;;;;5029947;28;20455;-45
2023/03/26 06:28:11;;;;;;;2.53;1.67;;;13.70;58.90;;;;;;5028267;28;20877;-47
2023/03/26 06:30:37;;;;;;;7.90;5.20;;;14.00;58.60;;;;;;5024231;28;20881;-45
2023/03/26 06:33:03;;;;;;;8.83;4.73;;;14.30;57.60;;;;;;5026399;28;20456;-46
2023/03/26 06:35:29;;;;;;;3.53;2.77;;;14.40;56.90;;;;;;5032059;28;20478;-45
2023/03/26 06:37:56;;;;;;;3.07;2.20;;;14.40;56.30;;;;;;5029643;28;20452;-48
2023/03/26 06:40:21;;;;;;;2.57;1.67;;;14.50;56.40;;;;;;5031211;28;20444;-44
2023/03/26 06:42:47;;;;;;;3.40;1.70;;;14.40;56.30;;;;;;5027920;28;20436;-45
2023/03/26 06:45:12;;;;;;;2.73;1.73;;;14.40;55.90;;;;;;5028108;28;20236;-45
2023/03/26 06:47:38;;;;;;;4.50;1.87;;;14.50;55.90;;;;;;5029946;28;20225;-47
2023/03/26 06:50:04;;;;;;;5.50;1.77;;;14.50;55.60;;;;;;5028788;28;20288;-45
2023/03/26 06:52:30;;;;;;;5.70;1.70;;;14.60;55.10;;;;;;5026985;28;20216;-45
2023/03/26 06:54:56;;;;;;;8.40;2.10;;;14.60;54.10;;;;;;5026219;28;20444;-45
2023/03/26 06:57:21;;;;;;;3.20;1.43;;;14.30;54.90;;;;;;5029545;28;20197;-45
2023/03/26 06:59:47;;;;;;;3.83;1.50;;;14.40;55.50;;;;;;5030484;28;20193;-45
2023/03/26 07:02:13;;;;;;;4.17;2.10;;;14.30;54.90;;;;;;5028880;28;20584;-44
2023/03/26 07:04:39;;;;;;;2.67;1.80;;;14.20;55.60;;;;;;5026937;28;20486;-45
2023/03/26 07:07:05;;;;;;;5.03;1.63;;;14.20;55.90;;;;;;5023555;28;20194;-47
2023/03/26 07:09:31;;;;;;;6.70;1.63;;;13.90;56.10;;;;;;5033045;28;20636;-47
2023/03/26 07:11:57;;;;;;;5.70;2.30;;;13.80;56.90;;;;;;5030412;28;20436;-46
2023/03/26 07:14:23;;;;;;;6.93;2.57;;;13.70;56.90;;;;;;5030014;28;20225;-45
2023/03/26 07:16:52;;;;;;;5.00;2.00;;;13.50;57.50;;;;;;5028542;28;20432;-46
2023/03/26 07:19:18;;;;;;;5.90;2.83;;;13.70;57.80;;;;;;5024134;28;20463;-44
2023/03/26 07:21:48;;;;;;;4.57;2.43;;;14.00;57.20;;;;;;5027184;28;20475;-50
2023/03/26 07:24:15;;;;;;;8.37;2.90;;;14.20;56.50;;;;;;5025390;28;20192;-44
2023/03/26 07:27:09;;;;;;;6.70;3.93;;;14.10;56.90;;;;;;5024204;28;20443;-45
2023/03/26 07:29:50;;;;;;;7.70;2.80;;;14.30;56.70;;;;;;5025391;28;20988;-45
2023/03/26 07:32:20;;;;;;;6.50;2.90;;;14.50;56.30;;;;;;5026073;28;20810;-45
2023/03/26 07:35:02;;;;;;;4.30;2.73;;;14.70;56.30;;;;;;5026842;28;20453;-44
2023/03/26 07:37:54;;;;;;;4.67;3.03;;;14.90;55.90;;;;;;5022782;28;20942;-44
2023/03/26 07:40:50;;;;;;;6.07;2.07;;;15.00;55.50;;;;;;5026136;28;20447;-46
2023/03/26 07:43:49;;;;;;;4.60;2.50;;;15.10;55.70;;;;;;5028614;28;20459;-48
2023/03/26 07:46:19;;;;;;;10.73;4.33;;;14.90;55.70;;;;;;5015917;28;21054;-46
2023/03/26 07:48:46;;;;;;;5.90;4.63;;;14.90;55.70;;;;;;5018968;28;20590;-48
2023/03/26 07:51:13;;;;;;;5.53;3.73;;;14.80;55.70;;;;;;5026868;28;20448;-46
2023/03/26 07:53:39;;;;;;;3.60;2.10;;;14.80;55.90;;;;;;5024850;28;20466;-44
2023/03/26 07:56:25;;;;;;;6.70;2.20;;;14.50;55.10;;;;;;5025599;28;20494;-48
2023/03/26 07:59:17;;;;;;;4.00;1.93;;;14.50;55.80;;;;;;5021418;28;20476;-45
2023/03/26 08:02:07;;;;;;;8.17;1.90;;;14.30;55.70;;;;;;5025128;28;20509;-46
2023/03/26 08:04:33;;;;;;;5.20;2.67;;;14.20;56.00;;;;;;5020077;28;20470;-48
2023/03/26 08:07:17;;;;;;;3.23;1.60;;;14.30;56.00;;;;;;5025760;28;20455;-47
2023/03/26 08:10:18;;;;;;;5.23;2.00;;;14.20;56.60;;;;;;5028696;28;20828;-46
2023/03/26 08:12:52;;;;;;;2.20;1.70;;;14.00;57.30;;;;;;4985072;28;20456;-46
2023/03/26 08:15:43;;;;;;;2.80;2.00;;;13.70;57.90;;;;;;5021986;28;20461;-49
2023/03/26 08:18:26;;;;;;;3.80;1.67;;;13.70;59.10;;;;;;5032583;28;20455;-50
2023/03/26 08:21:12;;;;;;;3.73;1.97;;;13.90;59.20;;;;;;5021007;28;20448;-50
2023/03/26 08:23:55;;;;;;;4.03;2.43;;;13.80;59.00;;;;;;5034111;28;20498;-46
2023/03/26 08:26:37;;;;;;;2.53;1.67;;;13.80;59.90;;;;;;5022822;28;20455;-45
2023/03/26 08:29:15;;;;;;;3.03;1.80;;;13.90;59.60;;;;;;5021475;28;20517;-49
2023/03/26 08:31:43;;;;;;;6.73;2.20;;;13.60;59.90;;;;;;5023475;28;20718;-46
2023/03/26 08:34:12;;;;;;;5.90;1.70;;;13.40;61.70;;;;;;5027536;28;20432;-46
2023/03/26 08:36:38;;;;;;;4.53;1.83;;;13.40;61.90;;;;;;5026975;28;20961;-50
2023/03/26 08:39:04;;;;;;;7.73;1.70;;;13.20;62.50;;;;;;5035888;28;20523;-49
2023/03/26 08:41:48;;;;;;;5.07;2.60;;;13.00;64.00;;;;;;5028198;28;20811;-45
2023/03/26 08:44:40;;;;;;;4.80;2.23;;;12.90;65.50;;;;;;5032173;28;20893;-46
2023/03/26 08:47:23;;;;;;;2.43;2.00;;;12.90;65.60;;;;;;5025349;28;20920;-50
2023/03/26 08:49:49;;;;;;;5.47;2.43;;;13.20;65.70;;;;;;5020625;28;20483;-50
2023/03/26 08:52:17;;;;;;;5.43;1.97;;;13.40;65.10;;;;;;5027844;28;20506;-49
2023/03/26 08:55:04;;;;;;;6.20;2.30;;;13.70;64.40;;;;;;5023184;28;20212;-48
2023/03/26 08:57:53;;;;;;;5.90;2.60;;;13.90;63.60;;;;;;5026899;28;20463;-48
2023/03/26 09:00:23;;;;;;;2.43;2.23;;;13.90;63.10;;;;;;5013547;28;20518;-47
2023/03/26 09:03:16;;;;;;;4.27;2.17;;;13.80;63.90;;;;;;5024027;28;20436;-48
2023/03/26 09:05:57;;;;;;;4.20;2.20;;;13.40;65.80;;;;;;5024480;28;20440;-51
2023/03/26 09:09:07;;;;;;;8.10;2.80;;;13.30;66.70;;;;;;5022840;28;20545;-47
2023/03/26 09:11:51;;;;;;;4.37;2.17;;;13.20;67.80;;;;;;5024612;28;20556;-50
2023/03/26 09:14:29;;;;;;;5.10;2.10;;;13.30;68.10;;;;;;5022577;28;20459;-49
2023/03/26 09:17:18;;;;;;;4.43;2.03;;;13.20;67.10;;;;;;5027049;28;20543;-50
2023/03/26 09:19:53;;;;;;;4.50;2.20;;;13.30;67.20;;;;;;5029645;28;20817;-49
2023/03/26 09:22:55;;;;;;;3.30;1.80;;;13.50;67.30;;;;;;5024675;28;20454;-50
2023/03/26 09:25:29;;;;;;;5.30;2.17;;;13.90;65.80;;;;;;5020667;28;20458;-49
2023/03/26 09:28:33;;;;;;;3.50;1.63;;;14.10;64.60;;;;;;5027653;28;20477;-49
2023/03/26 09:31:38;;;;;;;4.57;2.00;;;14.00;64.20;;;;;;5027474;28;20432;-50
2023/03/26 09:34:07;;;;;;;6.90;1.77;;;14.10;64.00;;;;;;5027299;28;20459;-48
2023/03/26 09:36:44;;;;;;;3.07;1.60;;;13.90;64.30;;;;;;5028411;28;20451;-46
2023/03/26 09:39:31;;;;;;;1.27;1.00;;;13.60;64.80;;;;;;5028515;28;20451;-47
2023/03/26 09:42:13;;;;;;;2.37;1.40;;;13.50;65.00;;;;;;5025472;28;20447;-49
2023/03/26 09:44:59;;;;;;;3.50;1.70;;;13.50;65.20;;;;;;5030643;28;20458;-47
2023/03/26 09:47:44;;;;;;;4.00;1.50;;;13.70;65.50;;;;;;5031373;28;20540;-49
2023/03/26 09:50:37;;;;;;;4.03;1.63;;;13.70;66.10;;;;;;5024915;28;20463;-45
2023/03/26 09:53:08;;;;;;;2.70;1.97;;;13.90;66.00;;;;;;5029661;28;20595;-48
2023/03/26 09:55:49;;;;;;;1.50;1.30;;;14.40;65.20;;;;;;5029661;28;20479;-46
2023/03/26 09:58:40;;;;;;;2.20;1.37;;;14.80;64.10;;;;;;5029511;28;20475;-47
2023/03/26 10:01:14;;;;;;;2.10;1.53;;;15.00;63.60;;;;;;5032403;28;20444;-45
2023/03/26 10:03:46;;;;;;;3.83;1.50;;;15.00;62.60;;;;;;5029001;28;20435;-48
2023/03/26 10:06:31;;;;;;;1.47;1.17;;;15.00;62.70;;;;;;5023407;28;20459;-47
2023/03/26 10:09:01;;;;;;;5.30;1.80;;;15.00;62.20;;;;;;5029704;28;20491;-47
2023/03/26 10:11:54;;;;;;;1.50;1.23;;;14.80;61.30;;;;;;5027592;28;20483;-51
2023/03/26 10:14:33;;;;;;;3.00;1.40;;;15.00;61.80;;;;;;5021594;28;20498;-46
2023/03/26 10:17:32;;;;;;;2.77;1.30;;;15.30;60.90;;;;;;5029874;28;20983;-48
2023/03/26 10:20:17;;;;;;;3.60;1.47;;;15.40;59.80;;;;;;5031448;28;20456;-50
2023/03/26 10:22:45;;;;;;;1.43;1.30;;;15.10;59.80;;;;;;5030252;28;20443;-49
2023/03/26 10:25:30;;;;;;;1.50;1.20;;;15.10;58.90;;;;;;5030794;28;20478;-52
2023/03/26 10:28:01;;;;;;;1.27;1.00;;;15.40;58.80;;;;;;5029352;28;20471;-50
2023/03/26 10:30:44;;;;;;;2.00;1.37;;;15.40;58.30;;;;;;5026711;28;20466;-48
2023/03/26 10:33:35;;;;;;;1.63;1.17;;;15.40;57.50;;;;;;5029764;28;20554;-48
2023/03/26 10:36:28;;;;;;;1.30;1.10;;;15.60;57.20;;;;;;5048451;28;20474;-49
2023/03/26 10:39:19;;;;;;;2.20;1.30;;;15.60;56.10;;;;;;5024668;28;20458;-50
2023/03/26 10:42:16;;;;;;;1.87;1.13;;;15.60;56.80;;;;;;5029407;28;20534;-46
2023/03/26 10:45:03;;;;;;;3.90;0.93;;;15.90;57.10;;;;;;5029061;28;20450;-53
2023/03/26 10:47:50;;;;;;;1.10;1.00;;;15.90;55.70;;;;;;5027935;28;20538;-50
2023/03/26 10:50:26;;;;;;;2.87;1.30;;;16.00;54.80;;;;;;5036586;28;20498;-49
2023/03/26 10:52:56;;;;;;;4.83;1.10;;;16.10;55.30;;;;;;5031642;28;20465;-49
2023/03/26 10:55:39;;;;;;;1.43;1.20;;;16.10;53.30;;;;;;5017700;28;20483;-48
2023/03/26 10:58:17;;;;;;;1.57;1.30;;;16.50;53.10;;;;;;5048414;28;20454;-52
2023/03/26 11:00:52;;;;;;;2.07;1.07;;;16.50;52.50;;;;;;5050822;28;20501;-48
2023/03/26 11:03:53;;;;;;;2.00;1.30;;;16.30;50.70;;;;;;5046599;28;21022;-51
2023/03/26 11:06:24;;;;;;;1.20;0.97;;;16.30;49.90;;;;;;5036450;28;21029;-49
2023/03/26 11:09:04;;;;;;;3.33;1.53;;;16.40;50.40;;;;;;5051006;28;20487;-53
2023/03/26 11:11:44;;;;;;;1.17;1.07;;;16.50;50.50;;;;;;5056910;28;20759;-50
2023/03/26 11:14:34;;;;;;;1.13;1.03;;;16.40;49.30;;;;;;5052257;28;20447;-52
2023/03/26 11:17:37;;;;;;;2.07;1.97;;;16.40;50.10;;;;;;5047150;28;20447;-49
2023/03/26 11:20:15;;;;;;;1.17;1.00;;;16.40;49.70;;;;;;5042351;28;20445;-49
2023/03/26 11:22:56;;;;;;;1.23;1.13;;;16.30;48.70;;;;;;5047451;28;20447;-49
2023/03/26 11:25:37;;;;;;;1.10;1.00;;;16.20;49.10;;;;;;5047459;28;20451;-49
2023/03/26 11:28:24;;;;;;;1.30;1.10;;;16.20;48.50;;;;;;5048254;28;20501;-51
2023/03/26 11:30:55;;;;;;;5.10;1.43;;;15.90;48.10;;;;;;5046773;28;20471;-47
2023/03/26 11:33:30;;;;;;;0.97;0.90;;;16.30;49.30;;;;;;5048175;28;20451;-48
2023/03/26 11:36:01;;;;;;;1.57;0.97;;;16.50;48.40;;;;;;5048941;28;20443;-50
2023/03/26 11:38:36;;;;;;;2.57;1.00;;;16.40;46.90;;;;;;5047369;28;20862;-51
2023/03/26 11:41:03;;;;;;;1.10;1.00;;;16.50;47.40;;;;;;5046572;28;20543;-52
2023/03/26 11:43:33;;;;;;;2.43;1.30;;;16.80;47.10;;;;;;5052837;28;20458;-51
2023/03/26 11:46:03;;;;;;;1.40;0.90;;;17.10;46.40;;;;;;5047644;28;20492;-50
2023/03/26 11:48:43;;;;;;;1.63;1.00;;;17.30;46.10;;;;;;5048640;28;20546;-51
2023/03/26 11:51:29;;;;;;;0.90;0.90;;;17.30;45.70;;;;;;5049407;28;20439;-50
2023/03/26 11:53:56;;;;;;;1.23;0.97;;;17.00;42.70;;;;;;5046229;28;20474;-51
2023/03/26 11:56:43;;;;;;;2.77;1.20;;;16.50;42.50;;;;;;5034234;28;20476;-52
2023/03/26 11:59:27;;;;;;;2.00;0.80;;;16.30;44.20;;;;;;5019284;28;20872;-52
2023/03/26 12:02:13;;;;;;;1.33;0.97;;;16.10;44.30;;;;;;5030511;28;20450;-51
2023/03/26 12:04:44;;;;;;;2.87;0.90;;;16.00;44.90;;;;;;5029568;28;20452;-51
2023/03/26 12:07:22;;;;;;;1.60;0.90;;;15.90;44.90;;;;;;5033610;28;20444;-50
2023/03/26 12:09:58;;;;;;;1.20;1.10;;;15.90;45.10;;;;;;5030219;28;20491;-48
2023/03/26 12:12:38;;;;;;;1.30;0.80;;;15.90;45.10;;;;;;5029485;28;20947;-51
2023/03/26 12:15:12;;;;;;;0.90;0.73;;;16.10;45.60;;;;;;5029352;28;20447;-49
2023/03/26 12:17:40;;;;;;;5.43;1.07;;;16.10;46.10;;;;;;5036135;28;20877;-52
2023/03/26 12:20:25;;;;;;;2.50;1.80;;;16.50;46.90;;;;;;5027870;28;20451;-52
2023/03/26 12:22:57;;;;;;;1.30;1.07;;;16.60;46.60;;;;;;5030102;28;20852;-52
2023/03/26 12:25:25;;;;;;;1.20;0.80;;;16.30;48.20;;;;;;5027817;28;20502;-52
2023/03/26 12:27:56;;;;;;;1.37;0.70;;;16.10;50.80;;;;;;5026254;28;20471;-50
2023/03/26 12:30:30;;;;;;;2.00;1.07;;;16.00;52.80;;;;;;5027506;28;21034;-51
2023/03/26 12:33:27;;;;;;;1.20;1.10;;;15.80;54.10;;;;;;5027844;28;20519;-51
2023/03/26 12:35:55;;;;;;;1.33;0.83;;;15.70;53.90;;;;;;5025921;28;20554;-52
2023/03/26 12:38:32;;;;;;;1.47;0.87;;;16.00;54.80;;;;;;5029400;28;20486;-50
2023/03/26 12:41:21;;;;;;;0.80;0.80;;;16.20;54.30;;;;;;5018649;28;20444;-51
2023/03/26 12:43:51;;;;;;;1.20;0.90;;;16.30;53.30;;;;;;5033937;28;20482;-50
2023/03/26 12:46:31;;;;;;;2.87;1.20;;;16.40;51.90;;;;;;5028945;28;20470;-50
2023/03/26 12:49:05;;;;;;;1.27;1.17;;;16.50;51.30;;;;;;5029530;28;20494;-50
2023/03/26 12:51:51;;;;;;;0.83;0.83;;;16.60;51.20;;;;;;5030073;28;20439;-51
2023/03/26 12:54:22;;;;;;;1.40;1.00;;;16.80;50.80;;;;;;5027088;28;20454;-52
2023/03/26 12:57:04;;;;;;;1.23;0.90;;;16.90;50.70;;;;;;5027826;28;20521;-47
2023/03/26 12:59:38;;;;;;;1.43;1.13;;;16.80;50.40;;;;;;5021209;28;20448;-46
2023/03/26 13:02:24;;;;;;;2.10;1.13;;;16.60;50.40;;;;;;5020796;28;20534;-48
2023/03/26 13:05:33;;;;;;;1.50;0.87;;;16.80;52.80;;;;;;5028498;28;20439;-49
2023/03/26 13:08:24;;;;;;;3.53;1.60;;;16.90;53.00;;;;;;4947712;28;20518;-47
2023/03/26 13:11:22;;;;;;;2.57;1.40;;;17.10;53.50;;;;;;4949684;28;20946;-49
2023/03/26 13:14:23;;;;;;;2.83;1.33;;;17.30;53.60;;;;;;5017206;28;20521;-48
2023/03/26 13:17:00;;;;;;;1.80;1.30;;;17.30;51.30;;;;;;5018962;28;20489;-48
2023/03/26 13:19:31;;;;;;;1.97;1.23;;;17.40;50.00;;;;;;5035604;28;20490;-48
2023/03/26 13:21:56;;;;;;;2.07;1.07;;;17.50;49.90;;;;;;5030343;28;20447;-48